Time;durP1;ratioP1;P1;durP2;ratioP2;P2;SDS_P1;SDS_P2;PMS_P1;PMS_P2;Temp;Humidity;BMP_temperature;BMP_pressure;BME280_temperature;BME280_humidity;BME280_pressure;Samples;Min_cycle;Max_cycle;Signal;HPM_P1;HPM_P2
2023/09/04 00:02:06;;;;;;;10.43;5.32;;;14.00;99.90;;;;;;4964576;28;205658;-70
2023/09/04 00:04:33;;;;;;;9.20;4.75;;;13.90;99.90;;;;;;5005405;28;20506;-68
2023/09/04 00:06:59;;;;;;;8.98;4.50;;;13.90;99.90;;;;;;4956357;28;161787;-68
2023/09/04 00:09:25;;;;;;;11.45;4.97;;;13.90;99.90;;;;;;4977933;28;20436;-70
2023/09/04 00:11:51;;;;;;;12.13;5.53;;;13.90;99.90;;;;;;4947403;28;194053;-68
2023/09/04 00:14:17;;;;;;;11.75;5.45;;;13.90;99.90;;;;;;4983675;28;20054;-68
2023/09/04 00:16:43;;;;;;;12.60;5.97;;;13.80;99.90;;;;;;4954159;28;80677;-69
2023/09/04 00:19:09;;;;;;;11.20;5.70;;;13.70;99.90;;;;;;5009606;28;20088;-69
2023/09/04 00:21:35;;;;;;;10.40;5.40;;;13.70;99.90;;;;;;4952908;28;28151;-68
2023/09/04 00:24:01;;;;;;;9.07;4.70;;;13.70;99.90;;;;;;4996481;28;20050;-68
2023/09/04 00:26:28;;;;;;;12.43;5.63;;;13.70;99.90;;;;;;4950639;28;246421;-68
2023/09/04 00:28:54;;;;;;;9.48;4.97;;;13.60;99.90;;;;;;5005867;28;20046;-69
2023/09/04 00:31:20;;;;;;;9.55;4.50;;;13.60;99.90;;;;;;4964879;28;124736;-67
2023/09/04 00:33:46;;;;;;;11.27;5.18;;;13.60;99.90;;;;;;5002164;28;20358;-68
2023/09/04 00:36:12;;;;;;;10.13;5.13;;;13.50;99.90;;;;;;4962513;28;199842;-67
2023/09/04 00:38:38;;;;;;;10.30;5.28;;;13.50;99.90;;;;;;5000552;28;20496;-67
2023/09/04 00:41:04;;;;;;;10.55;5.38;;;13.50;99.90;;;;;;4971578;28;20595;-67
2023/09/04 00:43:35;;;;;;;12.18;6.22;;;13.40;99.90;;;;;;5007464;28;20058;-68
2023/09/04 00:46:03;;;;;;;;;;;13.40;99.90;;;;;;4974229;28;20049;-68
2023/09/04 00:48:31;;;;;;;11.23;5.93;;;13.30;99.90;;;;;;5013520;28;19928;-68
2023/09/04 00:50:58;;;;;;;12.40;6.72;;;13.30;99.90;;;;;;4935050;28;205839;-68
2023/09/04 00:53:26;;;;;;;10.18;5.63;;;13.30;99.90;;;;;;4995211;28;20057;-68
2023/09/04 00:55:53;;;;;;;10.68;5.95;;;13.30;99.90;;;;;;4965598;28;194133;-67
2023/09/04 00:58:19;;;;;;;10.68;6.15;;;13.20;99.90;;;;;;5007029;28;20422;-67
2023/09/04 01:00:46;;;;;;;10.75;6.03;;;13.20;99.90;;;;;;4966305;28;77058;-69
2023/09/04 01:03:12;;;;;;;10.77;6.22;;;13.20;99.90;;;;;;5005302;28;20066;-69
2023/09/04 01:05:39;;;;;;;11.63;6.03;;;13.20;99.90;;;;;;4959772;28;243358;-68
2023/09/04 01:08:05;;;;;;;12.73;6.18;;;13.20;99.90;;;;;;4986224;28;20054;-68
2023/09/04 01:11:08;;;;;;;11.15;6.35;;;13.10;99.90;;;;;;4965364;28;208274;-69
2023/09/04 01:13:45;;;;;;;12.85;6.43;;;13.10;99.90;;;;;;4995173;28;20424;-70
2023/09/04 01:16:11;;;;;;;11.98;6.72;;;13.10;99.90;;;;;;4972587;28;156703;-69
2023/09/04 01:18:38;;;;;;;10.98;5.65;;;13.10;99.90;;;;;;5011959;28;20049;-69
2023/09/04 01:21:05;;;;;;;12.82;6.60;;;13.00;99.90;;;;;;4961186;28;115401;-68
2023/09/04 01:23:32;;;;;;;11.50;5.53;;;13.00;99.90;;;;;;5002372;28;20065;-68
2023/09/04 01:26:04;;;;;;;10.68;6.05;;;12.90;99.90;;;;;;4960007;28;31470;-69
2023/09/04 01:28:44;;;;;;;13.85;5.90;;;12.90;99.90;;;;;;4998771;28;20072;-67
2023/09/04 01:31:17;;;;;;;12.80;6.40;;;12.90;99.90;;;;;;4954111;28;227945;-69
2023/09/04 01:33:49;;;;;;;10.52;6.20;;;12.90;99.90;;;;;;5004473;28;20411;-69
2023/09/04 01:36:17;;;;;;;11.57;6.18;;;12.80;99.90;;;;;;4950909;28;20054;-69
2023/09/04 01:38:45;;;;;;;12.55;6.20;;;12.80;99.90;;;;;;4984854;28;20054;-68
2023/09/04 01:41:12;;;;;;;11.63;5.60;;;12.80;99.90;;;;;;4944936;28;124893;-67
2023/09/04 01:43:38;;;;;;;11.52;5.95;;;12.80;99.90;;;;;;4990739;28;20065;-67
2023/09/04 01:46:04;;;;;;;10.25;6.10;;;12.70;99.90;;;;;;4954858;28;164712;-68
2023/09/04 01:48:31;;;;;;;12.07;6.55;;;12.70;99.90;;;;;;5005517;28;20064;-68
2023/09/04 01:50:57;;;;;;;12.25;6.47;;;12.70;99.90;;;;;;4930180;28;251354;-69
2023/09/04 01:53:23;;;;;;;11.98;6.10;;;12.60;99.90;;;;;;4992373;28;20078;-69
2023/09/04 01:55:49;;;;;;;12.45;6.13;;;12.60;99.90;;;;;;4962813;28;20459;-68
2023/09/04 01:58:15;;;;;;;10.90;5.85;;;12.60;99.90;;;;;;5002597;28;20054;-68
2023/09/04 02:00:43;;;;;;;12.02;5.93;;;12.50;99.90;;;;;;4963532;28;20500;-68
2023/09/04 02:03:09;;;;;;;10.30;5.68;;;12.60;99.90;;;;;;4993195;28;20692;-68
2023/09/04 02:05:39;;;;;;;10.35;5.45;;;12.50;99.90;;;;;;4928721;28;230991;-69
2023/09/04 02:08:07;;;;;;;12.43;6.40;;;12.50;99.90;;;;;;4967462;28;20155;-69
2023/09/04 02:10:35;;;;;;;12.50;6.20;;;12.50;99.90;;;;;;4944401;28;176395;-68
2023/09/04 02:13:02;;;;;;;12.98;6.55;;;12.40;99.90;;;;;;4990801;28;20046;-69
2023/09/04 02:15:29;;;;;;;12.85;6.60;;;12.40;99.90;;;;;;4960677;28;163817;-67
2023/09/04 02:17:55;;;;;;;12.73;6.50;;;12.40;99.90;;;;;;4999679;28;20049;-68
2023/09/04 02:20:22;;;;;;;12.30;6.47;;;12.30;99.90;;;;;;4979274;28;20099;-69
2023/09/04 02:22:48;;;;;;;10.32;5.75;;;12.30;99.90;;;;;;4995560;28;255749;-68
2023/09/04 02:25:14;;;;;;;10.77;6.07;;;12.30;99.90;;;;;;4974424;28;20062;-67
2023/09/04 02:27:40;;;;;;;10.90;5.88;;;12.30;99.90;;;;;;4969136;28;160608;-67
2023/09/04 02:30:08;;;;;;;11.48;6.28;;;12.30;99.90;;;;;;4970671;28;20057;-69
2023/09/04 02:32:34;;;;;;;11.52;6.38;;;12.20;99.90;;;;;;4958431;28;197450;-67
2023/09/04 02:35:01;;;;;;;12.15;6.30;;;12.20;99.90;;;;;;4978567;28;20057;-71
2023/09/04 02:37:27;;;;;;;14.40;6.30;;;12.20;99.90;;;;;;4954264;28;57290;-68
2023/09/04 02:39:53;;;;;;;9.98;5.35;;;12.20;99.90;;;;;;4983193;28;20054;-68
2023/09/04 02:42:19;;;;;;;11.18;6.00;;;12.10;99.90;;;;;;4952430;28;109648;-68
2023/09/04 02:44:45;;;;;;;10.43;6.55;;;12.10;99.90;;;;;;4983093;28;20065;-68
2023/09/04 02:47:11;;;;;;;11.65;5.97;;;12.10;99.90;;;;;;4953753;28;72095;-69
2023/09/04 02:49:37;;;;;;;11.07;5.53;;;12.10;99.90;;;;;;4984485;28;20534;-68
2023/09/04 02:52:04;;;;;;;10.40;5.82;;;12.10;99.90;;;;;;4942688;28;202765;-68
2023/09/04 02:54:30;;;;;;;10.27;5.80;;;12.10;99.90;;;;;;4995651;28;20053;-69
2023/09/04 02:56:56;;;;;;;10.52;5.38;;;12.00;99.90;;;;;;4956134;28;141663;-69
2023/09/04 02:59:22;;;;;;;11.13;5.53;;;12.00;99.90;;;;;;5004365;28;20050;-69
2023/09/04 03:01:49;;;;;;;11.95;6.13;;;12.00;99.90;;;;;;4953119;28;156722;-68
2023/09/04 03:04:16;;;;;;;11.05;5.38;;;12.00;99.90;;;;;;5003306;28;20062;-68
2023/09/04 03:06:42;;;;;;;11.30;5.47;;;12.00;99.90;;;;;;4946282;28;168392;-68
2023/09/04 03:09:08;;;;;;;10.70;5.47;;;12.00;99.90;;;;;;4981988;28;20058;-67
2023/09/04 03:11:34;;;;;;;10.63;5.47;;;12.00;99.90;;;;;;4939398;28;212924;-69
2023/09/04 03:14:00;;;;;;;11.77;5.32;;;12.00;99.90;;;;;;4969675;28;20050;-69
2023/09/04 03:16:28;;;;;;;10.77;6.20;;;11.90;99.90;;;;;;4932035;28;55053;-67
2023/09/04 03:18:55;;;;;;;10.18;5.57;;;11.90;99.90;;;;;;4976837;28;20062;-68
2023/09/04 03:21:21;;;;;;;10.15;5.60;;;11.90;99.90;;;;;;4932293;28;31736;-69
2023/09/04 03:23:51;;;;;;;13.45;5.80;;;11.80;99.90;;;;;;4978443;28;20057;-68
2023/09/04 03:26:17;;;;;;;12.30;6.10;;;11.80;99.90;;;;;;4951892;28;235625;-67
2023/09/04 03:28:43;;;;;;;11.07;5.95;;;11.80;99.90;;;;;;5005256;28;20054;-67
2023/09/04 03:31:14;;;;;;;12.15;5.55;;;11.80;99.90;;;;;;4941982;28;169869;-68
2023/09/04 03:33:41;;;;;;;10.60;5.53;;;11.80;99.90;;;;;;4967217;28;20050;-66
2023/09/04 03:36:07;;;;;;;13.02;5.30;;;11.70;99.90;;;;;;4941164;28;43656;-67
2023/09/04 03:38:33;;;;;;;10.52;5.40;;;11.70;99.90;;;;;;4978881;28;20054;-67
2023/09/04 03:40:59;;;;;;;9.90;5.45;;;11.70;99.90;;;;;;4946046;28;246375;-69
2023/09/04 03:43:25;;;;;;;9.88;5.13;;;11.60;99.90;;;;;;4998147;28;20061;-68
2023/09/04 03:45:51;;;;;;;9.77;5.65;;;11.60;99.90;;;;;;4958430;28;139895;-68
2023/09/04 03:48:17;;;;;;;10.65;5.03;;;11.60;99.90;;;;;;4995829;28;20538;-69
2023/09/04 03:50:44;;;;;;;11.20;5.70;;;11.60;99.90;;;;;;4945286;28;117664;-67
2023/09/04 03:53:10;;;;;;;10.43;5.22;;;11.50;99.90;;;;;;4999627;28;20054;-68
2023/09/04 03:55:37;;;;;;;8.90;4.90;;;11.50;99.90;;;;;;4952391;28;173087;-67
2023/09/04 03:58:03;;;;;;;9.55;4.90;;;11.50;99.90;;;;;;4968621;28;20062;-68
2023/09/04 04:00:30;;;;;;;10.48;5.15;;;11.40;99.90;;;;;;4932669;28;226201;-67
2023/09/04 04:02:57;;;;;;;11.05;4.97;;;11.50;99.90;;;;;;4992196;28;20061;-69
2023/09/04 04:05:24;;;;;;;9.50;4.75;;;11.40;99.90;;;;;;4950408;28;231160;-68
2023/09/04 04:07:50;;;;;;;10.98;4.90;;;11.30;99.90;;;;;;5009380;28;20818;-68
2023/09/04 04:10:16;;;;;;;8.98;4.95;;;11.30;99.90;;;;;;4970827;28;20061;-68
2023/09/04 04:12:42;;;;;;;9.52;4.63;;;11.30;99.90;;;;;;4973886;28;220284;-69
2023/09/04 04:15:10;;;;;;;8.85;4.47;;;11.30;99.90;;;;;;4975282;28;20415;-67
2023/09/04 04:17:36;;;;;;;10.35;5.05;;;11.30;99.90;;;;;;4980267;28;187787;-68
2023/09/04 04:20:09;;;;;;;10.15;4.68;;;11.20;99.90;;;;;;4988697;28;20411;-68
2023/09/04 04:22:35;;;;;;;10.63;5.00;;;11.20;99.90;;;;;;4956279;28;73881;-69
2023/09/04 04:25:01;;;;;;;12.07;4.90;;;11.20;99.90;;;;;;4996228;28;20501;-67
2023/09/04 04:27:27;;;;;;;9.63;4.90;;;11.20;99.90;;;;;;4965275;28;196906;-69
2023/09/04 04:29:55;;;;;;;9.43;4.82;;;11.10;99.90;;;;;;5004065;28;20058;-67
2023/09/04 04:32:21;;;;;;;11.32;5.00;;;11.10;99.90;;;;;;4944443;28;30951;-68
2023/09/04 04:34:47;;;;;;;9.32;4.72;;;11.10;99.90;;;;;;5005324;28;20053;-68
2023/09/04 04:37:13;;;;;;;8.73;4.55;;;11.10;99.90;;;;;;4967687;28;240324;-68
2023/09/04 04:39:39;;;;;;;9.60;4.63;;;11.10;99.90;;;;;;5001715;28;20053;-67
2023/09/04 04:42:05;;;;;;;10.23;4.90;;;11.10;99.90;;;;;;4969606;28;127350;-68
2023/09/04 04:44:32;;;;;;;10.35;4.60;;;11.00;99.90;;;;;;5000705;28;20054;-68
2023/09/04 04:46:58;;;;;;;9.82;4.50;;;11.00;99.90;;;;;;4968111;28;154566;-69
2023/09/04 04:49:24;;;;;;;11.73;4.28;;;11.00;99.90;;;;;;5002674;28;20495;-69
2023/09/04 04:51:50;;;;;;;9.80;4.80;;;11.00;99.90;;;;;;4919949;28;215193;-67
2023/09/04 04:54:19;;;;;;;9.55;5.15;;;11.00;99.90;;;;;;4984673;28;20050;-67
2023/09/04 04:56:48;;;;;;;9.13;4.50;;;11.00;99.90;;;;;;4966449;28;32939;-69
2023/09/04 04:59:14;;;;;;;9.73;4.68;;;11.00;99.90;;;;;;5002557;28;20073;-68
2023/09/04 05:01:41;;;;;;;9.32;4.85;;;11.00;99.90;;;;;;4952167;28;20537;-68
2023/09/04 05:04:07;;;;;;;10.27;4.75;;;11.00;99.90;;;;;;5005811;28;20069;-67
2023/09/04 05:06:33;;;;;;;10.80;5.45;;;11.00;99.90;;;;;;4960394;28;96077;-68
2023/09/04 05:08:59;;;;;;;10.52;4.80;;;11.10;99.90;;;;;;4998844;28;20056;-69
2023/09/04 05:11:25;;;;;;;10.20;4.63;;;11.00;99.90;;;;;;4961756;28;179691;-69
2023/09/04 05:13:51;;;;;;;9.05;4.43;;;11.10;99.90;;;;;;5004349;28;20513;-68
2023/09/04 05:16:17;;;;;;;9.52;4.55;;;11.10;99.90;;;;;;4954746;28;74644;-69
2023/09/04 05:18:43;;;;;;;8.88;4.57;;;11.10;99.90;;;;;;4986034;28;20501;-68
2023/09/04 05:21:09;;;;;;;10.18;4.55;;;11.10;99.90;;;;;;4949867;28;183806;-69
2023/09/04 05:23:36;;;;;;;10.38;5.00;;;11.20;99.90;;;;;;5006594;28;20514;-68
2023/09/04 05:26:02;;;;;;;12.07;5.68;;;11.60;99.90;;;;;;5001492;28;20066;-69
2023/09/04 05:28:29;;;;;;;11.77;4.90;;;11.70;99.90;;;;;;4940565;28;223979;-67
2023/09/04 05:31:02;;;;;;;12.00;5.50;;;12.10;99.90;;;;;;4981061;28;20046;-68
2023/09/04 05:33:29;;;;;;;11.10;6.00;;;12.20;99.90;;;;;;4962129;28;69417;-68
2023/09/04 05:35:58;;;;;;;13.38;6.30;;;12.20;99.90;;;;;;4999532;28;20058;-67
2023/09/04 05:38:24;;;;;;;12.40;5.65;;;12.20;99.90;;;;;;4937869;28;230396;-68
2023/09/04 05:40:55;;;;;;;9.88;5.90;;;12.30;99.90;;;;;;4985209;28;20058;-67
2023/09/04 05:43:21;;;;;;;9.55;4.97;;;12.90;99.90;;;;;;4934567;28;233927;-69
2023/09/04 05:45:49;;;;;;;9.50;5.00;;;13.40;99.90;;;;;;4990193;28;20058;-68
2023/09/04 05:48:15;;;;;;;10.82;4.90;;;14.00;99.90;;;;;;4962185;28;40871;-68
2023/09/04 05:50:41;;;;;;;9.15;4.53;;;14.50;99.90;;;;;;4975166;28;20057;-67
2023/09/04 05:53:07;;;;;;;8.88;4.20;;;15.00;99.90;;;;;;4954902;28;229346;-68
2023/09/04 05:55:36;;;;;;;10.15;4.90;;;15.40;99.90;;;;;;5007704;28;20061;-69
2023/09/04 05:58:03;;;;;;;9.43;5.00;;;15.80;99.90;;;;;;4951845;28;139559;-69
2023/09/04 06:00:29;;;;;;;10.07;4.97;;;16.20;99.90;;;;;;4970335;28;20054;-69
2023/09/04 06:02:55;;;;;;;9.80;4.83;;;16.60;99.90;;;;;;4939768;28;241873;-68
2023/09/04 06:05:21;;;;;;;9.93;5.15;;;16.90;99.90;;;;;;4969699;28;20050;-70
2023/09/04 06:07:47;;;;;;;11.90;4.53;;;17.10;99.90;;;;;;4947827;28;53110;-68
2023/09/04 06:10:13;;;;;;;10.13;5.30;;;17.40;99.90;;;;;;4972866;28;20404;-69
2023/09/04 06:12:40;;;;;;;10.10;5.45;;;17.60;99.90;;;;;;4958901;28;20082;-70
2023/09/04 06:15:07;;;;;;;10.43;5.72;;;17.70;99.90;;;;;;4963940;28;222618;-69
2023/09/04 06:17:33;;;;;;;12.70;6.78;;;17.70;99.90;;;;;;4955445;28;20050;-68
2023/09/04 06:19:59;;;;;;;9.90;5.50;;;17.70;99.90;;;;;;4998144;28;209176;-69
2023/09/04 06:22:25;;;;;;;12.05;6.28;;;17.80;99.90;;;;;;4990059;28;20069;-68
2023/09/04 06:24:51;;;;;;;12.65;5.90;;;17.90;99.90;;;;;;4961903;28;20534;-69
2023/09/04 06:27:17;;;;;;;11.52;6.20;;;18.00;99.90;;;;;;4981762;28;20139;-68
2023/09/04 06:29:43;;;;;;;11.40;6.28;;;18.00;99.90;;;;;;4940301;28;20542;-67
2023/09/04 06:32:10;;;;;;;9.68;5.78;;;18.10;99.90;;;;;;5007430;28;20080;-68
2023/09/04 06:34:36;;;;;;;11.77;6.00;;;18.40;99.90;;;;;;4968135;28;245979;-68
2023/09/04 06:37:03;;;;;;;9.98;5.43;;;18.70;99.90;;;;;;5001734;28;20054;-67
2023/09/04 06:39:29;;;;;;;14.73;6.40;;;19.00;99.90;;;;;;4958526;28;57467;-68
2023/09/04 06:41:55;;;;;;;12.05;6.07;;;19.40;99.90;;;;;;5004951;28;20054;-69
2023/09/04 06:44:21;;;;;;;11.70;5.68;;;19.70;99.90;;;;;;4956995;28;44897;-69
2023/09/04 06:46:47;;;;;;;10.63;5.30;;;20.10;99.90;;;;;;5007160;28;20057;-67
2023/09/04 06:49:14;;;;;;;9.50;5.22;;;20.30;99.90;;;;;;4961534;28;49323;-68
2023/09/04 06:51:40;;;;;;;11.43;5.45;;;20.40;99.90;;;;;;5005340;28;20050;-69
2023/09/04 06:54:06;;;;;;;11.52;5.50;;;20.50;99.90;;;;;;4925234;28;152350;-68
2023/09/04 06:56:32;;;;;;;9.70;4.60;;;20.80;99.90;;;;;;4981284;28;20050;-69
2023/09/04 06:58:58;;;;;;;11.38;4.65;;;21.00;99.90;;;;;;4969355;28;66655;-69
2023/09/04 07:01:24;;;;;;;9.70;4.57;;;21.20;99.90;;;;;;5006588;28;20058;-68
2023/09/04 07:03:50;;;;;;;8.85;4.50;;;21.40;99.90;;;;;;4957071;28;104251;-68
2023/09/04 07:06:16;;;;;;;9.32;4.43;;;21.70;99.90;;;;;;4999967;28;20049;-69
2023/09/04 07:08:42;;;;;;;10.10;4.00;;;21.80;99.90;;;;;;4955139;28;222400;-69
2023/09/04 07:11:08;;;;;;;9.05;3.80;;;22.00;99.90;;;;;;5007997;28;20057;-70
2023/09/04 07:13:34;;;;;;;10.45;3.70;;;22.10;99.90;;;;;;4956101;28;20053;-71
2023/09/04 07:16:01;;;;;;;9.48;3.83;;;22.20;99.90;;;;;;4998801;28;20054;-69
2023/09/04 07:18:27;;;;;;;8.60;3.40;;;22.30;99.90;;;;;;4954321;28;255808;-67
2023/09/04 07:20:53;;;;;;;10.73;3.30;;;22.50;99.90;;;;;;4974957;28;20058;-68
2023/09/04 07:23:20;;;;;;;10.55;3.40;;;22.70;99.90;;;;;;4942287;28;212016;-69
2023/09/04 07:25:46;;;;;;;7.80;3.13;;;22.90;99.90;;;;;;4981151;28;20053;-71
2023/09/04 07:28:12;;;;;;;11.05;2.97;;;23.00;99.90;;;;;;4937880;28;92296;-68
2023/09/04 07:30:38;;;;;;;8.02;2.97;;;23.20;99.90;;;;;;4979043;28;20050;-68
2023/09/04 07:33:04;;;;;;;8.57;2.90;;;23.60;99.90;;;;;;4938928;28;219900;-68
2023/09/04 07:35:30;;;;;;;8.30;3.10;;;23.80;99.90;;;;;;4976836;28;20064;-69
2023/09/04 07:37:56;;;;;;;7.55;2.58;;;24.00;99.90;;;;;;4933152;28;177229;-67
2023/09/04 07:40:23;;;;;;;7.45;2.47;;;24.30;99.90;;;;;;4977217;28;20061;-68
2023/09/04 07:42:49;;;;;;;9.07;3.05;;;24.40;99.80;;;;;;4939020;28;31101;-68
2023/09/04 07:45:16;;;;;;;9.65;3.00;;;24.50;99.40;;;;;;4987186;28;20062;-69
2023/09/04 07:47:42;;;;;;;7.82;2.63;;;24.70;99.10;;;;;;4951856;28;20058;-70
2023/09/04 07:50:08;;;;;;;7.18;2.38;;;24.80;98.80;;;;;;4990148;28;20054;-67
2023/09/04 07:52:34;;;;;;;8.95;2.40;;;24.90;98.40;;;;;;4949512;28;85722;-68
2023/09/04 07:55:00;;;;;;;6.65;2.35;;;25.00;97.80;;;;;;4994871;28;20053;-69
2023/09/04 07:57:27;;;;;;;6.38;2.30;;;25.10;97.60;;;;;;4957075;28;20058;-68
2023/09/04 07:59:53;;;;;;;7.38;2.30;;;25.30;96.30;;;;;;4986052;28;140732;-68
2023/09/04 08:02:19;;;;;;;8.52;2.30;;;25.30;97.10;;;;;;5005525;28;20617;-68
2023/09/04 08:04:45;;;;;;;8.57;2.35;;;25.40;96.90;;;;;;4968654;28;220215;-69
2023/09/04 08:07:11;;;;;;;6.95;2.40;;;25.60;96.70;;;;;;5001072;28;20050;-68
2023/09/04 08:09:37;;;;;;;7.45;2.35;;;25.80;96.40;;;;;;4949965;28;68049;-68
2023/09/04 08:12:03;;;;;;;8.95;2.20;;;26.20;96.90;;;;;;4985427;28;20058;-69
2023/09/04 08:14:35;;;;;;;7.03;2.40;;;26.60;96.00;;;;;;4958770;28;78590;-69
2023/09/04 08:17:03;;;;;;;6.75;2.30;;;26.60;95.50;;;;;;4981606;28;20495;-68
2023/09/04 08:19:29;;;;;;;10.18;2.80;;;26.50;95.70;;;;;;4921401;28;277247;-68
2023/09/04 08:21:58;;;;;;;8.02;2.40;;;26.30;95.00;;;;;;4984057;28;20534;-69
2023/09/04 08:24:24;;;;;;;7.07;2.28;;;26.60;95.30;;;;;;4934817;28;153233;-68
2023/09/04 08:26:50;;;;;;;7.38;2.20;;;26.80;95.00;;;;;;4987814;28;20403;-68
2023/09/04 08:29:16;;;;;;;9.10;2.10;;;27.20;95.00;;;;;;4941846;28;116836;-67
2023/09/04 08:31:43;;;;;;;7.25;2.42;;;27.70;94.80;;;;;;5007020;28;20406;-69
2023/09/04 08:34:09;;;;;;;7.93;1.90;;;27.90;94.30;;;;;;4968538;28;242917;-68
2023/09/04 08:36:35;;;;;;;7.07;2.25;;;28.10;94.20;;;;;;5000786;28;20511;-68
2023/09/04 08:39:01;;;;;;;7.93;2.25;;;28.40;94.40;;;;;;4950985;28;129586;-67
2023/09/04 08:41:28;;;;;;;8.25;2.00;;;28.70;93.70;;;;;;4988790;28;20058;-69
2023/09/04 08:43:54;;;;;;;8.02;2.13;;;29.00;93.60;;;;;;4950666;28;20058;-68
2023/09/04 08:46:21;;;;;;;7.35;1.90;;;29.20;93.20;;;;;;4984527;28;20065;-68
2023/09/04 08:48:50;;;;;;;6.25;2.10;;;29.10;93.20;;;;;;4947345;28;20438;-67
2023/09/04 08:51:16;;;;;;;8.95;2.20;;;29.20;92.50;;;;;;4988538;28;20062;-68
2023/09/04 08:53:43;;;;;;;7.20;2.00;;;29.10;92.30;;;;;;4946594;28;40506;-69
2023/09/04 08:56:09;;;;;;;8.00;1.75;;;29.20;92.20;;;;;;5006816;28;20053;-68
2023/09/04 08:58:35;;;;;;;5.97;1.70;;;29.40;92.10;;;;;;4953474;28;20071;-68
2023/09/04 09:01:03;;;;;;;7.78;2.10;;;29.20;91.70;;;;;;4989145;28;20068;-68
2023/09/04 09:03:30;;;;;;;7.97;2.00;;;29.00;91.60;;;;;;4932909;28;20125;-67
2023/09/04 09:05:57;;;;;;;6.38;1.80;;;28.80;91.40;;;;;;4968131;28;20521;-67
2023/09/04 09:08:24;;;;;;;7.07;1.70;;;29.10;91.30;;;;;;4953186;28;20054;-68
2023/09/04 09:10:52;;;;;;;6.53;1.60;;;29.50;91.50;;;;;;4989054;28;20042;-68
2023/09/04 09:13:19;;;;;;;7.72;1.80;;;30.00;91.30;;;;;;4953154;28;20096;-68
2023/09/04 09:15:45;;;;;;;7.18;1.80;;;30.30;91.10;;;;;;4995638;28;20050;-68
2023/09/04 09:18:11;;;;;;;6.28;1.85;;;30.80;91.20;;;;;;4944735;28;20574;-67
2023/09/04 09:20:42;;;;;;;7.40;2.00;;;31.30;90.80;;;;;;4983707;28;21101;-67
2023/09/04 09:23:09;;;;;;;6.18;1.73;;;31.60;90.30;;;;;;4943846;28;20057;-69
2023/09/04 09:25:37;;;;;;;7.30;1.90;;;31.70;88.50;;;;;;4974883;28;20511;-68
2023/09/04 09:28:08;;;;;;;6.50;1.50;;;31.60;89.40;;;;;;4948752;28;20062;-68
2023/09/04 09:30:37;;;;;;;6.85;1.60;;;31.70;88.60;;;;;;4982608;28;20061;-69
2023/09/04 09:33:09;;;;;;;6.05;1.50;;;31.90;88.20;;;;;;4942540;28;20054;-68
2023/09/04 09:35:38;;;;;;;6.72;1.52;;;31.30;86.90;;;;;;4990328;28;20037;-69
2023/09/04 09:38:05;;;;;;;6.78;1.77;;;31.50;87.20;;;;;;4926711;28;20053;-69
2023/09/04 09:40:31;;;;;;;7.32;1.83;;;31.70;86.90;;;;;;4981752;28;20053;-67
2023/09/04 09:43:00;;;;;;;10.52;1.80;;;32.10;87.10;;;;;;4941561;28;20062;-69
2023/09/04 09:45:33;;;;;;;6.18;1.67;;;32.20;86.00;;;;;;4975641;28;20061;-69
2023/09/04 09:48:12;;;;;;;7.03;1.80;;;32.40;86.60;;;;;;4953435;28;20072;-69
2023/09/04 09:50:40;;;;;;;5.28;1.40;;;32.70;85.50;;;;;;4989870;28;20471;-68
2023/09/04 09:53:06;;;;;;;5.88;2.08;;;32.60;84.90;;;;;;4935309;28;253263;-68
2023/09/04 09:55:34;;;;;;;8.55;1.70;;;32.70;85.60;;;;;;5008719;28;20057;-69
2023/09/04 09:58:01;;;;;;;6.80;1.65;;;33.20;85.60;;;;;;4967554;28;20054;-67
2023/09/04 10:00:28;;;;;;;6.55;1.60;;;33.20;83.90;;;;;;4997455;28;20066;-69
2023/09/04 10:02:54;;;;;;;7.15;1.90;;;33.30;82.90;;;;;;4953697;28;20061;-68
2023/09/04 10:05:25;;;;;;;5.57;1.48;;;33.50;83.80;;;;;;4981384;28;20065;-68
2023/09/04 10:07:59;;;;;;;5.03;1.38;;;33.90;83.30;;;;;;4944892;28;20478;-68
2023/09/04 10:10:26;;;;;;;5.72;1.50;;;34.20;83.30;;;;;;4984180;28;20133;-68
2023/09/04 10:12:56;;;;;;;6.78;1.42;;;34.60;83.60;;;;;;4948698;28;20046;-68
2023/09/04 10:15:27;;;;;;;5.35;1.40;;;34.70;82.50;;;;;;4984388;28;20431;-69
2023/09/04 10:18:03;;;;;;;6.28;1.20;;;34.80;82.90;;;;;;4950887;28;20053;-69
2023/09/04 10:20:30;;;;;;;5.85;1.30;;;34.90;83.00;;;;;;4984925;28;20065;-68
2023/09/04 10:23:05;;;;;;;6.72;1.50;;;35.10;82.20;;;;;;4947502;28;20054;-69
2023/09/04 10:25:34;;;;;;;5.47;1.35;;;35.30;81.40;;;;;;4993754;28;20065;-71
2023/09/04 10:28:09;;;;;;;5.38;1.20;;;35.30;81.60;;;;;;4951139;28;20053;-69
2023/09/04 10:30:38;;;;;;;5.80;1.35;;;35.40;81.00;;;;;;4992061;28;20050;-67
2023/09/04 10:33:06;;;;;;;5.07;1.30;;;34.90;81.00;;;;;;4949411;28;20127;-67
2023/09/04 10:35:32;;;;;;;5.65;1.40;;;34.90;81.20;;;;;;4988399;28;20080;-67
2023/09/04 10:37:59;;;;;;;5.40;1.25;;;35.20;81.50;;;;;;4957151;28;20045;-68
2023/09/04 10:40:28;;;;;;;4.90;1.30;;;35.40;80.10;;;;;;5016459;28;20061;-69
2023/09/04 10:42:56;;;;;;;6.43;1.67;;;35.40;79.80;;;;;;4970669;28;20141;-67
2023/09/04 10:45:23;;;;;;;6.25;1.50;;;35.50;80.40;;;;;;5019816;28;20038;-68
2023/09/04 10:47:51;;;;;;;5.95;1.50;;;35.30;78.90;;;;;;4964536;28;20050;-70
2023/09/04 10:50:36;;;;;;;5.43;1.38;;;35.00;79.30;;;;;;5018398;28;20050;-69
2023/09/04 10:53:06;;;;;;;6.25;1.25;;;35.00;79.70;;;;;;4951270;28;230622;-68
2023/09/04 10:55:37;;;;;;;6.57;1.50;;;35.30;79.90;;;;;;5004010;28;20065;-69
2023/09/04 10:58:07;;;;;;;3.92;1.13;;;35.60;78.90;;;;;;4970995;28;20045;-69
2023/09/04 11:00:34;;;;;;;5.47;1.40;;;35.70;78.80;;;;;;5019559;28;20053;-68
2023/09/04 11:03:21;;;;;;;6.03;1.40;;;35.70;78.40;;;;;;4971885;28;20218;-69
2023/09/04 11:06:04;;;;;;;6.05;1.40;;;35.40;75.10;;;;;;5013476;28;20061;-69
2023/09/04 11:08:32;;;;;;;5.25;1.30;;;34.80;75.60;;;;;;4956868;28;20082;-68
2023/09/04 11:11:06;;;;;;;6.18;1.40;;;35.00;78.30;;;;;;4999788;28;20053;-69
2023/09/04 11:13:33;;;;;;;5.38;1.30;;;35.00;77.40;;;;;;4976275;28;20072;-68
2023/09/04 11:16:04;;;;;;;4.53;1.23;;;35.30;77.20;;;;;;5008843;28;20053;-68
2023/09/04 11:18:31;;;;;;;5.05;1.30;;;35.30;77.90;;;;;;4972607;28;20437;-70
2023/09/04 11:20:59;;;;;;;4.35;1.20;;;35.30;77.40;;;;;;5002034;28;20057;-69
2023/09/04 11:23:27;;;;;;;5.13;1.20;;;35.50;77.90;;;;;;4945443;28;20054;-68
2023/09/04 11:25:53;;;;;;;5.55;1.30;;;35.60;77.10;;;;;;5005748;28;20061;-69
2023/09/04 11:28:24;;;;;;;4.63;1.15;;;35.60;76.30;;;;;;4967036;28;20061;-68
2023/09/04 11:30:58;;;;;;;11.32;1.90;;;35.60;77.10;;;;;;4995766;28;20050;-68
2023/09/04 11:33:25;;;;;;;4.95;1.30;;;35.80;76.80;;;;;;4966671;28;20567;-69
2023/09/04 11:36:02;;;;;;;5.78;1.50;;;36.00;76.70;;;;;;4989504;28;20058;-68
2023/09/04 11:38:30;;;;;;;5.88;1.40;;;36.10;76.60;;;;;;4950185;28;139406;-69
2023/09/04 11:40:56;;;;;;;6.20;1.52;;;36.10;76.60;;;;;;4985994;28;20034;-69
2023/09/04 11:43:24;;;;;;;5.90;1.30;;;36.30;76.10;;;;;;4959572;28;20061;-69
2023/09/04 11:45:57;;;;;;;5.03;1.25;;;36.60;76.20;;;;;;5001702;28;20061;-67
2023/09/04 11:48:27;;;;;;;5.60;1.30;;;36.70;75.60;;;;;;4952036;28;20714;-68
2023/09/04 11:50:54;;;;;;;4.30;1.20;;;36.90;75.40;;;;;;5000631;28;20050;-68
2023/09/04 11:53:24;;;;;;;4.95;1.15;;;36.60;75.30;;;;;;4937407;28;273408;-68
2023/09/04 11:55:52;;;;;;;5.75;1.10;;;36.10;75.20;;;;;;4995374;28;20057;-69
2023/09/04 11:58:18;;;;;;;4.10;1.00;;;35.80;73.70;;;;;;4958856;28;20431;-70
2023/09/04 12:00:45;;;;;;;6.47;1.20;;;35.80;74.50;;;;;;4981916;28;20050;-68
2023/09/04 12:03:12;;;;;;;4.65;1.20;;;36.10;74.10;;;;;;4950078;28;20561;-68
2023/09/04 12:05:38;;;;;;;4.43;1.10;;;36.10;72.70;;;;;;4981272;28;20058;-68
2023/09/04 12:08:04;;;;;;;5.55;1.42;;;36.20;73.60;;;;;;4955256;28;20441;-68
2023/09/04 12:10:35;;;;;;;4.65;1.20;;;35.90;73.30;;;;;;5012690;28;20064;-69
2023/09/04 12:13:02;;;;;;;5.22;1.40;;;35.70;74.10;;;;;;4970574;28;20068;-69
2023/09/04 12:15:30;;;;;;;4.13;1.10;;;35.80;73.70;;;;;;5012869;28;20506;-69
2023/09/04 12:18:04;;;;;;;5.90;1.30;;;35.90;74.30;;;;;;4968993;28;20465;-69
2023/09/04 12:20:34;;;;;;;4.88;1.15;;;36.20;71.80;;;;;;5009194;28;20053;-69
2023/09/04 12:23:00;;;;;;;5.20;1.20;;;36.30;72.00;;;;;;4962670;28;20058;-69
2023/09/04 12:25:35;;;;;;;5.95;1.30;;;36.50;74.20;;;;;;5000925;28;20057;-69
2023/09/04 12:28:06;;;;;;;5.75;1.30;;;36.70;72.80;;;;;;4966323;28;20065;-68
2023/09/04 12:30:41;;;;;;;5.18;1.20;;;36.70;73.10;;;;;;4999750;28;20100;-69
2023/09/04 12:33:12;;;;;;;4.88;1.20;;;36.80;70.90;;;;;;4968089;28;20422;-68
2023/09/04 12:35:39;;;;;;;4.70;1.27;;;36.90;72.60;;;;;;5000997;28;20057;-70
2023/09/04 12:38:06;;;;;;;4.63;1.10;;;37.00;71.60;;;;;;4971148;28;20158;-68
2023/09/04 12:40:32;;;;;;;8.15;1.50;;;36.80;71.30;;;;;;4997227;28;20049;-70
2023/09/04 12:43:01;;;;;;;8.07;1.48;;;36.00;71.00;;;;;;4966336;28;20219;-69